Time;durP1;ratioP1;P1;durP2;ratioP2;P2;SDS_P1;SDS_P2;PMS_P1;PMS_P2;Temp;Humidity;BMP_temperature;BMP_pressure;BME280_temperature;BME280_humidity;BME280_pressure;Samples;Min_cycle;Max_cycle;Signal;HPM_P1;HPM_P2
2024/01/21 00:01:06;;;;;;;7.43;4.60;;;3.40;57.30;;;;;;5062770;28;20799;-75
2024/01/21 00:03:36;;;;;;;9.30;3.97;;;3.40;55.30;;;;;;5033802;28;20749;-76
2024/01/21 00:06:05;;;;;;;9.07;4.20;;;3.50;56.80;;;;;;5035636;28;20711;-75
2024/01/21 00:08:34;;;;;;;8.30;4.47;;;3.50;56.20;;;;;;5020778;28;20252;-75
2024/01/21 00:11:03;;;;;;;11.97;4.43;;;3.40;57.10;;;;;;5037070;28;20229;-75
2024/01/21 00:13:32;;;;;;;8.33;4.43;;;3.20;60.60;;;;;;5047666;28;20739;-76
2024/01/21 00:16:01;;;;;;;10.17;5.53;;;3.30;57.10;;;;;;5031244;28;20224;-76
2024/01/21 00:18:30;;;;;;;10.33;5.07;;;3.20;57.90;;;;;;5039697;28;20245;-76
2024/01/21 00:21:00;;;;;;;10.63;5.10;;;3.20;57.80;;;;;;5039022;28;20720;-76
2024/01/21 00:23:29;;;;;;;10.77;4.93;;;3.20;58.00;;;;;;5018704;28;20221;-77
2024/01/21 00:25:58;;;;;;;10.53;5.00;;;3.10;57.90;;;;;;5015658;28;20228;-77
2024/01/21 00:28:27;;;;;;;9.23;5.23;;;3.00;57.80;;;;;;5031911;28;20240;-77
2024/01/21 00:30:56;;;;;;;8.50;4.93;;;3.00;59.20;;;;;;5049810;28;20244;-77
2024/01/21 00:33:25;;;;;;;9.40;4.77;;;3.00;59.20;;;;;;5035320;28;20259;-77
2024/01/21 00:35:54;;;;;;;11.87;5.20;;;3.00;59.60;;;;;;5013901;28;20223;-76
2024/01/21 00:38:24;;;;;;;9.23;5.10;;;2.90;64.90;;;;;;5036387;28;20228;-77
2024/01/21 00:40:53;;;;;;;11.47;4.93;;;2.90;59.70;;;;;;5038418;28;20236;-77
2024/01/21 00:43:22;;;;;;;9.33;4.70;;;2.90;60.10;;;;;;5037490;28;20227;-77
2024/01/21 00:45:51;;;;;;;8.80;4.80;;;2.80;59.20;;;;;;5020128;28;20269;-77
2024/01/21 00:48:21;;;;;;;10.83;4.60;;;2.70;59.10;;;;;;5019139;28;20268;-77
2024/01/21 00:50:50;;;;;;;9.47;4.40;;;2.80;58.10;;;;;;5031679;28;20311;-77
2024/01/21 00:53:19;;;;;;;8.23;4.30;;;2.70;59.40;;;;;;5036589;28;20317;-77
2024/01/21 00:55:49;;;;;;;8.60;3.83;;;2.70;59.60;;;;;;5037836;28;20273;-77
2024/01/21 00:58:18;;;;;;;10.30;4.03;;;2.70;59.60;;;;;;5065995;28;20244;-78
2024/01/21 01:00:47;;;;;;;10.67;4.10;;;2.70;59.90;;;;;;5020183;28;20279;-77
2024/01/21 01:03:16;;;;;;;8.97;4.00;;;2.70;59.80;;;;;;5053683;28;20224;-77
2024/01/21 01:05:46;;;;;;;7.43;3.80;;;2.60;59.60;;;;;;5034515;28;20229;-77
2024/01/21 01:08:17;;;;;;;8.00;3.80;;;2.70;60.20;;;;;;5030819;28;20642;-77
2024/01/21 01:10:46;;;;;;;7.57;3.67;;;2.70;60.70;;;;;;5042065;28;20453;-77
2024/01/21 01:13:16;;;;;;;13.83;4.20;;;2.70;60.10;;;;;;5041626;28;20236;-77
2024/01/21 01:15:45;;;;;;;10.93;4.87;;;2.60;60.40;;;;;;5023280;28;20765;-77
2024/01/21 01:18:15;;;;;;;11.80;4.07;;;2.50;60.50;;;;;;5050861;28;20736;-77
2024/01/21 01:20:44;;;;;;;10.97;3.93;;;2.50;61.60;;;;;;5054522;28;20236;-79
2024/01/21 01:23:14;;;;;;;9.17;4.13;;;2.50;61.00;;;;;;5024881;28;20227;-79
2024/01/21 01:25:43;;;;;;;8.90;4.80;;;2.50;60.10;;;;;;5055538;28;20215;-78
2024/01/21 01:28:12;;;;;;;9.20;4.70;;;2.50;59.70;;;;;;5019900;28;20650;-78
2024/01/21 01:30:43;;;;;;;11.70;4.70;;;2.40;60.90;;;;;;5041314;28;20630;-78
2024/01/21 01:33:12;;;;;;;10.53;5.47;;;2.50;62.30;;;;;;5052383;28;20220;-78
2024/01/21 01:35:41;;;;;;;11.13;4.80;;;2.40;63.00;;;;;;5038553;28;20224;-78
2024/01/21 01:38:13;;;;;;;10.57;5.27;;;2.50;62.40;;;;;;5032793;28;20395;-78
2024/01/21 01:40:41;;;;;;;11.80;6.13;;;2.50;62.40;;;;;;5038546;28;20216;-78
2024/01/21 01:43:10;;;;;;;10.23;5.53;;;2.40;62.40;;;;;;5036422;28;20232;-79
2024/01/21 01:45:39;;;;;;;14.10;6.27;;;2.30;61.60;;;;;;5054273;28;20248;-78
2024/01/21 01:48:10;;;;;;;13.33;6.23;;;2.30;61.40;;;;;;5036371;28;20239;-78
2024/01/21 01:50:39;;;;;;;10.40;5.60;;;2.40;63.30;;;;;;5058764;28;20232;-78
2024/01/21 01:53:08;;;;;;;13.33;5.50;;;2.40;62.80;;;;;;5021946;28;20959;-79
2024/01/21 01:55:37;;;;;;;10.90;5.23;;;2.30;61.90;;;;;;5044320;28;20228;-77
2024/01/21 01:58:05;;;;;;;16.70;6.20;;;2.20;62.20;;;;;;5038298;28;20744;-78
2024/01/21 02:00:34;;;;;;;12.83;5.87;;;2.20;63.60;;;;;;5055690;28;20212;-78
2024/01/21 02:03:04;;;;;;;10.70;5.40;;;2.30;53.80;;;;;;5050300;28;20243;-78
2024/01/21 02:05:34;;;;;;;9.50;5.10;;;2.10;62.90;;;;;;5032518;28;20709;-78
2024/01/21 02:08:03;;;;;;;11.77;5.50;;;2.00;62.50;;;;;;5051901;28;20242;-78
2024/01/21 02:10:32;;;;;;;12.90;5.10;;;1.90;63.80;;;;;;5043920;28;20389;-78
2024/01/21 02:13:01;;;;;;;11.43;5.43;;;2.00;62.60;;;;;;5038774;28;20220;-78
2024/01/21 02:15:31;;;;;;;11.67;5.50;;;2.00;62.90;;;;;;5052011;28;20228;-77
2024/01/21 02:17:59;;;;;;;13.10;5.53;;;2.10;62.40;;;;;;5038884;28;20307;-77
2024/01/21 02:20:28;;;;;;;8.40;5.07;;;2.10;62.40;;;;;;5051002;28;20279;-76
2024/01/21 02:22:59;;;;;;;14.20;5.23;;;2.10;62.60;;;;;;5042060;28;20224;-77
2024/01/21 02:25:28;;;;;;;12.40;5.33;;;2.00;63.30;;;;;;5036372;28;20369;-77
2024/01/21 02:27:57;;;;;;;15.73;5.70;;;2.10;62.80;;;;;;5037585;28;20788;-77
2024/01/21 02:30:26;;;;;;;10.37;5.87;;;2.00;61.70;;;;;;5025058;28;20556;-77
2024/01/21 02:32:55;;;;;;;12.50;5.10;;;2.00;62.80;;;;;;5058844;28;20247;-77
2024/01/21 02:35:24;;;;;;;12.17;5.17;;;1.90;63.00;;;;;;5027925;28;20273;-78
2024/01/21 02:37:53;;;;;;;9.30;5.03;;;2.00;62.50;;;;;;5019088;28;20297;-79
2024/01/21 02:40:23;;;;;;;9.17;5.30;;;1.80;61.50;;;;;;5050492;28;20270;-79
2024/01/21 02:42:52;;;;;;;9.60;4.77;;;1.80;62.80;;;;;;5055367;28;20232;-78
2024/01/21 02:45:21;;;;;;;9.50;5.10;;;1.80;63.00;;;;;;5020883;28;20652;-78
2024/01/21 02:47:50;;;;;;;9.57;5.20;;;1.80;62.50;;;;;;5035790;28;20350;-79
2024/01/21 02:50:20;;;;;;;9.20;4.63;;;1.70;62.00;;;;;;5046609;28;20240;-77
2024/01/21 02:52:49;;;;;;;12.10;4.73;;;1.80;62.50;;;;;;5056430;28;20254;-78
2024/01/21 02:55:17;;;;;;;10.53;4.80;;;1.70;64.10;;;;;;5026664;28;20281;-78
2024/01/21 02:57:48;;;;;;;14.37;4.63;;;1.80;62.60;;;;;;5060004;28;20281;-78
2024/01/21 03:00:18;;;;;;;10.27;4.80;;;1.80;63.90;;;;;;5029438;28;20231;-79
2024/01/21 03:02:47;;;;;;;10.50;5.40;;;1.80;76.30;;;;;;5037967;28;20282;-78
2024/01/21 03:05:17;;;;;;;10.30;5.20;;;1.70;62.60;;;;;;5040845;28;20239;-78
2024/01/21 03:07:46;;;;;;;10.37;5.23;;;1.70;63.40;;;;;;5034485;28;20232;-78
2024/01/21 03:10:15;;;;;;;9.77;4.93;;;1.70;62.60;;;;;;5058371;28;20231;-78
2024/01/21 03:12:44;;;;;;;10.33;4.67;;;1.60;62.80;;;;;;5060616;28;20227;-78
2024/01/21 03:15:14;;;;;;;9.77;4.40;;;1.60;62.80;;;;;;5024005;28;20765;-78
2024/01/21 03:17:43;;;;;;;9.73;4.43;;;1.50;62.80;;;;;;5064367;28;20613;-78
2024/01/21 03:20:13;;;;;;;9.10;4.37;;;1.60;63.40;;;;;;5039893;28;20235;-78
2024/01/21 03:22:41;;;;;;;13.20;5.00;;;1.60;63.50;;;;;;5061897;28;20231;-78
2024/01/21 03:25:11;;;;;;;12.37;5.03;;;1.60;62.80;;;;;;5048703;28;20227;-78
2024/01/21 03:27:39;;;;;;;8.40;3.73;;;1.70;64.10;;;;;;5056046;28;20893;-77
2024/01/21 03:30:09;;;;;;;9.17;4.00;;;1.60;62.40;;;;;;5031826;28;20887;-77
2024/01/21 03:32:40;;;;;;;12.70;4.80;;;1.60;63.50;;;;;;5036655;28;20607;-77
2024/01/21 03:35:09;;;;;;;9.47;4.07;;;1.60;63.20;;;;;;5039135;28;20230;-77
2024/01/21 03:37:38;;;;;;;9.70;3.90;;;1.60;63.40;;;;;;5032745;28;20311;-77
2024/01/21 03:40:08;;;;;;;8.20;3.90;;;1.60;63.20;;;;;;5049886;28;20235;-77
2024/01/21 03:42:38;;;;;;;8.27;4.07;;;1.60;64.10;;;;;;5040781;28;20231;-77
2024/01/21 03:45:08;;;;;;;8.70;4.30;;;1.50;65.10;;;;;;5052827;28;20238;-77
2024/01/21 03:47:37;;;;;;;8.10;4.30;;;1.50;63.40;;;;;;5051353;28;20297;-78
2024/01/21 03:50:08;;;;;;;9.43;4.03;;;1.40;63.10;;;;;;5040670;28;20258;-77
2024/01/21 03:52:37;;;;;;;11.80;4.13;;;1.30;63.60;;;;;;5053731;28;20250;-77
2024/01/21 03:55:06;;;;;;;9.30;3.90;;;1.40;63.50;;;;;;5040830;28;20247;-78
2024/01/21 03:57:36;;;;;;;10.13;4.37;;;1.40;63.20;;;;;;5044027;28;20239;-77
2024/01/21 04:00:08;;;;;;;11.97;4.17;;;1.40;62.50;;;;;;5050120;28;20244;-78
2024/01/21 04:02:40;;;;;;;14.63;4.77;;;1.40;63.50;;;;;;5057919;28;20282;-77
2024/01/21 04:05:11;;;;;;;10.53;4.30;;;1.30;63.30;;;;;;5038252;28;20223;-77
2024/01/21 04:07:39;;;;;;;9.40;4.10;;;1.30;65.10;;;;;;5058504;28;20224;-76
2024/01/21 04:10:10;;;;;;;9.50;4.13;;;1.30;64.10;;;;;;5062250;28;20477;-77
2024/01/21 04:12:39;;;;;;;9.33;4.63;;;1.30;63.10;;;;;;5040728;28;20218;-78
2024/01/21 04:15:08;;;;;;;8.93;4.40;;;1.30;64.30;;;;;;5056438;28;20226;-78
2024/01/21 04:17:37;;;;;;;11.67;4.20;;;1.30;64.10;;;;;;5039334;28;20619;-77
2024/01/21 04:20:08;;;;;;;10.40;4.33;;;1.30;63.50;;;;;;5050945;28;20230;-75
2024/01/21 04:22:39;;;;;;;11.70;4.37;;;1.20;64.20;;;;;;5056441;28;20331;-76
2024/01/21 04:25:08;;;;;;;8.53;4.50;;;1.20;64.90;;;;;;5042233;28;20226;-77
2024/01/21 04:27:37;;;;;;;8.60;4.43;;;1.20;64.00;;;;;;5046597;28;20230;-79
2024/01/21 04:30:07;;;;;;;10.73;4.70;;;1.20;65.70;;;;;;5050716;28;20218;-78
2024/01/21 04:32:36;;;;;;;12.80;4.63;;;1.20;65.00;;;;;;5042259;28;20224;-78
2024/01/21 04:35:06;;;;;;;9.13;4.33;;;1.10;64.20;;;;;;5047146;28;20231;-78
2024/01/21 04:37:35;;;;;;;11.87;4.47;;;1.10;66.40;;;;;;5045289;28;20705;-78
2024/01/21 04:40:07;;;;;;;11.47;4.40;;;1.00;65.40;;;;;;5032174;28;20323;-78
2024/01/21 04:42:36;;;;;;;10.83;4.47;;;1.10;67.00;;;;;;5042322;28;20235;-78
2024/01/21 04:45:06;;;;;;;12.07;5.03;;;1.10;63.90;;;;;;5046003;28;20993;-78
2024/01/21 04:47:38;;;;;;;13.60;5.10;;;1.10;64.70;;;;;;5046058;28;20228;-78
2024/01/21 04:50:08;;;;;;;8.17;4.67;;;0.90;65.00;;;;;;5037276;28;20223;-78
2024/01/21 04:52:36;;;;;;;9.27;4.60;;;0.90;66.10;;;;;;5042866;28;20289;-78
2024/01/21 04:55:08;;;;;;;12.60;4.87;;;0.90;65.40;;;;;;5044313;28;20259;-77
2024/01/21 04:57:37;;;;;;;16.50;5.20;;;0.90;67.20;;;;;;5051446;28;20223;-77
2024/01/21 05:00:08;;;;;;;14.53;5.23;;;0.90;65.10;;;;;;5036365;28;20234;-78
2024/01/21 05:02:37;;;;;;;12.20;5.47;;;0.80;66.30;;;;;;5044509;28;20219;-77
2024/01/21 05:05:06;;;;;;;19.47;6.70;;;0.90;65.20;;;;;;5047080;28;20801;-76
2024/01/21 05:07:35;;;;;;;19.30;8.40;;;0.90;67.10;;;;;;5079155;28;20227;-76
2024/01/21 05:10:06;;;;;;;17.90;8.77;;;0.80;65.50;;;;;;5059239;28;20226;-76
2024/01/21 05:12:35;;;;;;;15.47;7.70;;;0.90;67.10;;;;;;5037179;28;20234;-77
2024/01/21 05:15:05;;;;;;;22.83;11.10;;;0.80;66.60;;;;;;5033776;28;20258;-75
2024/01/21 05:17:34;;;;;;;17.80;8.63;;;0.80;67.00;;;;;;5057000;28;20219;-76
2024/01/21 05:20:05;;;;;;;18.10;8.37;;;0.70;67.10;;;;;;5038580;28;20786;-75
2024/01/21 05:22:34;;;;;;;15.53;7.30;;;0.70;66.90;;;;;;5041864;28;20223;-76
2024/01/21 05:25:03;;;;;;;15.23;7.37;;;0.70;65.60;;;;;;5041913;28;20221;-75
2024/01/21 05:27:33;;;;;;;14.33;7.13;;;0.70;65.80;;;;;;5047712;28;20234;-77
2024/01/21 05:30:03;;;;;;;21.27;7.27;;;0.70;66.10;;;;;;5058181;28;20221;-77
2024/01/21 05:32:32;;;;;;;20.60;6.90;;;0.60;65.30;;;;;;5061073;28;20223;-77
2024/01/21 05:35:01;;;;;;;12.97;6.00;;;0.50;65.40;;;;;;5034306;28;20234;-76
2024/01/21 05:37:30;;;;;;;12.80;5.73;;;0.50;66.10;;;;;;5054009;28;20283;-75
2024/01/21 05:39:59;;;;;;;13.07;5.63;;;0.50;66.80;;;;;;5040711;28;20248;-77
2024/01/21 05:42:33;;;;;;;12.13;5.47;;;0.60;66.10;;;;;;5053706;28;20230;-77
2024/01/21 05:45:02;;;;;;;10.90;5.37;;;0.60;66.10;;;;;;5038824;28;20238;-76
2024/01/21 05:47:31;;;;;;;14.97;6.00;;;0.50;65.80;;;;;;5028849;28;20696;-77
2024/01/21 05:50:00;;;;;;;12.57;6.60;;;0.50;66.00;;;;;;5036827;28;20310;-77
2024/01/21 05:52:29;;;;;;;12.03;6.47;;;0.40;66.50;;;;;;5054744;28;20241;-76
2024/01/21 05:54:58;;;;;;;15.17;6.10;;;0.40;66.70;;;;;;5037146;28;20776;-76
2024/01/21 05:57:27;;;;;;;15.07;6.37;;;0.60;67.00;;;;;;5024392;28;20265;-76
2024/01/21 05:59:57;;;;;;;12.47;6.83;;;0.60;66.70;;;;;;5057944;28;20215;-76
2024/01/21 06:02:25;;;;;;;14.10;7.07;;;0.50;66.50;;;;;;5054932;28;20235;-76
2024/01/21 06:04:54;;;;;;;12.40;6.73;;;0.50;66.70;;;;;;5029360;28;20231;-76
2024/01/21 06:07:23;;;;;;;14.43;7.10;;;0.40;66.20;;;;;;5041297;28;20225;-76
2024/01/21 06:09:52;;;;;;;16.40;7.27;;;0.30;66.80;;;;;;5040025;28;20350;-76
2024/01/21 06:12:20;;;;;;;19.93;6.70;;;0.30;67.30;;;;;;5043171;28;20274;-76
2024/01/21 06:14:49;;;;;;;13.67;6.60;;;0.40;67.50;;;;;;5037956;28;20330;-76
2024/01/21 06:17:19;;;;;;;12.50;6.43;;;0.40;66.50;;;;;;5023805;28;20224;-76
2024/01/21 06:19:48;;;;;;;20.77;7.17;;;0.40;66.10;;;;;;5040071;28;20235;-75
2024/01/21 06:22:17;;;;;;;16.20;7.50;;;0.40;66.50;;;;;;5034727;28;20258;-75
2024/01/21 06:24:45;;;;;;;14.77;6.70;;;0.30;67.00;;;;;;5037391;28;20227;-76
2024/01/21 06:27:14;;;;;;;14.20;7.13;;;0.30;67.20;;;;;;5041603;28;20283;-76
2024/01/21 06:29:45;;;;;;;10.77;7.07;;;0.40;67.40;;;;;;5053805;28;20234;-76
2024/01/21 06:32:13;;;;;;;18.97;7.60;;;0.30;67.10;;;;;;5023291;28;20234;-76
2024/01/21 06:34:43;;;;;;;18.73;7.60;;;0.30;67.70;;;;;;5036361;28;20264;-76
2024/01/21 06:37:12;;;;;;;15.10;7.77;;;0.30;69.50;;;;;;5030380;28;20918;-76
2024/01/21 06:39:41;;;;;;;19.33;8.63;;;0.40;67.00;;;;;;5022494;28;20221;-75
2024/01/21 06:42:15;;;;;;;22.37;7.87;;;0.40;67.50;;;;;;5056810;28;20223;-76
2024/01/21 06:44:44;;;;;;;16.10;7.17;;;0.40;67.30;;;;;;5035288;28;20228;-73
2024/01/21 06:47:13;;;;;;;15.67;7.33;;;0.40;68.30;;;;;;5041781;28;20229;-74
2024/01/21 06:49:43;;;;;;;15.73;7.80;;;0.30;68.20;;;;;;5038783;28;20227;-74
2024/01/21 06:52:11;;;;;;;16.67;7.10;;;0.30;67.60;;;;;;5037155;28;20226;-74
2024/01/21 06:54:41;;;;;;;19.57;7.77;;;0.30;67.70;;;;;;5032895;28;20305;-78
2024/01/21 06:57:10;;;;;;;19.03;7.37;;;0.30;68.40;;;;;;5075210;28;20347;-74
2024/01/21 06:59:38;;;;;;;16.67;7.37;;;0.30;66.80;;;;;;5046964;28;20315;-74
2024/01/21 07:02:07;;;;;;;14.23;6.97;;;0.40;67.70;;;;;;5058676;28;20237;-74
2024/01/21 07:04:36;;;;;;;13.83;7.50;;;0.50;68.30;;;;;;5038439;28;20303;-75
2024/01/21 07:07:06;;;;;;;21.37;7.93;;;0.50;81.10;;;;;;5040764;28;20230;-75
2024/01/21 07:09:35;;;;;;;23.03;8.07;;;0.50;68.40;;;;;;5021741;28;20374;-75
2024/01/21 07:12:04;;;;;;;18.10;7.80;;;0.60;69.30;;;;;;5039001;28;21497;-75
2024/01/21 07:14:34;;;;;;;15.07;8.50;;;0.50;68.70;;;;;;5042831;28;20227;-75
2024/01/21 07:17:03;;;;;;;19.47;8.60;;;0.60;67.70;;;;;;5037488;28;20279;-75
2024/01/21 07:19:32;;;;;;;17.67;8.33;;;0.70;68.50;;;;;;5041953;28;20228;-74
2024/01/21 07:22:01;;;;;;;15.33;7.97;;;0.70;67.10;;;;;;5059298;28;20226;-74
2024/01/21 07:24:31;;;;;;;12.90;7.40;;;0.60;68.10;;;;;;5057973;28;20238;-75
2024/01/21 07:27:00;;;;;;;17.90;8.50;;;0.60;67.70;;;;;;5042834;28;20841;-75
2024/01/21 07:29:29;;;;;;;15.63;8.20;;;0.70;67.60;;;;;;5040836;28;20232;-75
2024/01/21 07:31:58;;;;;;;16.33;9.03;;;0.60;68.70;;;;;;5039309;28;20221;-75
2024/01/21 07:34:27;;;;;;;23.33;9.43;;;0.80;68.00;;;;;;5035628;28;20214;-79
2024/01/21 07:36:56;;;;;;;21.60;9.97;;;0.80;68.70;;;;;;5050740;28;20226;-73
2024/01/21 07:39:25;;;;;;;21.17;10.37;;;0.80;69.10;;;;;;5063525;28;20223;-74
2024/01/21 07:41:56;;;;;;;19.97;10.63;;;0.90;69.00;;;;;;5031568;28;20307;-73
2024/01/21 07:44:24;;;;;;;20.90;10.47;;;0.90;70.20;;;;;;5041009;28;20229;-73
2024/01/21 07:46:56;;;;;;;22.40;11.60;;;1.00;69.50;;;;;;5050496;28;20565;-77
2024/01/21 07:49:25;;;;;;;21.90;10.73;;;1.10;68.10;;;;;;5055599;28;20225;-74
2024/01/21 07:52:02;;;;;;;22.27;10.97;;;1.20;68.10;;;;;;5052941;28;20217;-84
2024/01/21 07:54:31;;;;;;;21.73;11.83;;;1.30;68.20;;;;;;5055796;28;21052;-81
2024/01/21 07:57:02;;;;;;;23.07;12.33;;;1.30;68.10;;;;;;5051636;28;20630;-85
2024/01/21 07:59:33;;;;;;;22.90;11.83;;;1.30;68.00;;;;;;5051066;28;20219;-81
2024/01/21 08:02:02;;;;;;;25.73;13.30;;;1.30;67.80;;;;;;5024027;28;20228;-84
2024/01/21 08:04:31;;;;;;;23.50;12.83;;;1.30;68.10;;;;;;5054082;28;20315;-79
2024/01/21 08:07:00;;;;;;;29.90;14.33;;;1.30;68.40;;;;;;5040523;28;20591;-78
2024/01/21 08:09:30;;;;;;;25.90;14.90;;;1.40;67.50;;;;;;5024522;28;20305;-79
2024/01/21 08:11:59;;;;;;;28.90;14.70;;;1.40;68.70;;;;;;5036802;28;20312;-79
2024/01/21 08:14:32;;;;;;;28.77;14.00;;;1.40;68.00;;;;;;5038464;28;20226;-78
2024/01/21 08:17:00;;;;;;;29.30;15.47;;;1.40;68.50;;;;;;5051340;28;20379;-75
2024/01/21 08:19:29;;;;;;;33.53;16.90;;;1.40;68.70;;;;;;5038814;28;20234;-73
2024/01/21 08:21:58;;;;;;;25.13;14.33;;;1.50;69.20;;;;;;5035020;28;20776;-72
2024/01/21 08:24:27;;;;;;;35.57;15.83;;;1.60;68.80;;;;;;5037079;28;20884;-73
2024/01/21 08:27:00;;;;;;;29.07;15.27;;;1.60;67.10;;;;;;5051741;28;20228;-73
2024/01/21 08:29:30;;;;;;;27.77;15.53;;;1.60;68.30;;;;;;5018109;28;20222;-77
2024/01/21 08:32:00;;;;;;;30.53;16.50;;;1.60;68.40;;;;;;5030593;28;20223;-76
2024/01/21 08:34:30;;;;;;;27.17;15.83;;;1.60;68.00;;;;;;5050971;28;20237;-76
2024/01/21 08:36:59;;;;;;;27.03;16.03;;;1.70;66.90;;;;;;5035105;28;20292;-75
2024/01/21 08:39:28;;;;;;;34.63;16.53;;;1.80;67.40;;;;;;5038103;28;20303;-73
2024/01/21 08:41:57;;;;;;;33.73;17.20;;;1.80;66.80;;;;;;5041150;28;20269;-75
2024/01/21 08:44:26;;;;;;;36.80;17.87;;;1.90;67.30;;;;;;5006803;28;20700;-75
2024/01/21 08:46:56;;;;;;;31.53;16.90;;;1.90;66.50;;;;;;5052223;28;20271;-75
2024/01/21 08:49:26;;;;;;;35.03;19.27;;;1.90;67.90;;;;;;5039796;28;20226;-75
2024/01/21 08:51:54;;;;;;;37.83;19.43;;;2.00;66.10;;;;;;5049271;28;20222;-75
2024/01/21 08:54:23;;;;;;;35.97;18.73;;;2.10;66.50;;;;;;5051719;28;20228;-75
2024/01/21 08:56:52;;;;;;;37.50;20.07;;;2.10;65.70;;;;;;5045830;28;20245;-74
2024/01/21 08:59:21;;;;;;;38.40;20.20;;;2.10;67.10;;;;;;5041663;28;20227;-75
2024/01/21 09:01:50;;;;;;;44.30;22.30;;;2.10;66.50;;;;;;5058664;28;20231;-75
2024/01/21 09:04:20;;;;;;;39.13;22.10;;;2.10;66.50;;;;;;5018722;28;20243;-75
2024/01/21 09:06:49;;;;;;;43.93;21.47;;;2.10;67.50;;;;;;5036971;28;20390;-75
2024/01/21 09:09:18;;;;;;;45.27;23.03;;;2.10;68.60;;;;;;5019462;28;20318;-75
2024/01/21 09:11:47;;;;;;;45.97;22.33;;;2.20;67.30;;;;;;5060643;28;20227;-75
2024/01/21 09:14:16;;;;;;;47.10;23.00;;;2.30;66.90;;;;;;5034567;28;20883;-74
2024/01/21 09:16:45;;;;;;;47.77;22.90;;;2.40;66.50;;;;;;5032751;28;20210;-75
2024/01/21 09:19:15;;;;;;;46.63;23.57;;;2.30;67.40;;;;;;5054977;28;20813;-75
2024/01/21 09:21:46;;;;;;;42.20;22.27;;;2.50;66.70;;;;;;5035841;28;20247;-75
2024/01/21 09:24:14;;;;;;;44.10;24.77;;;2.50;66.20;;;;;;5034006;28;20220;-74
2024/01/21 09:26:43;;;;;;;45.20;25.07;;;2.60;66.00;;;;;;5053907;28;20334;-75
2024/01/21 09:29:12;;;;;;;48.40;25.87;;;2.60;65.50;;;;;;5031537;28;20227;-75
2024/01/21 09:31:41;;;;;;;46.47;25.30;;;2.60;66.40;;;;;;5038988;28;20227;-75
2024/01/21 09:34:09;;;;;;;47.57;24.63;;;2.70;66.30;;;;;;5043234;28;20237;-76
2024/01/21 09:36:38;;;;;;;49.57;25.70;;;2.60;65.80;;;;;;5040230;28;20224;-75
2024/01/21 09:39:09;;;;;;;50.43;25.33;;;2.70;65.90;;;;;;5021869;28;20302;-75
2024/01/21 09:41:43;;;;;;;51.63;25.53;;;2.90;65.00;;;;;;5055748;28;20225;-74
2024/01/21 09:44:12;;;;;;;52.67;26.67;;;2.90;66.60;;;;;;5025478;28;20232;-75
2024/01/21 09:46:41;;;;;;;48.30;26.70;;;3.10;64.80;;;;;;5046010;28;20366;-74
2024/01/21 09:49:12;;;;;;;48.17;26.07;;;3.20;64.00;;;;;;5037763;28;20220;-75
2024/01/21 09:51:43;;;;;;;48.03;26.50;;;3.30;64.20;;;;;;5018546;28;20225;-74
2024/01/21 09:54:13;;;;;;;58.07;26.33;;;3.40;63.70;;;;;;5046102;28;20247;-74
2024/01/21 09:56:42;;;;;;;50.73;26.00;;;3.60;62.50;;;;;;5021370;28;20228;-74
2024/01/21 09:59:12;;;;;;;51.93;25.63;;;3.70;62.20;;;;;;5018052;28;20259;-75
2024/01/21 10:01:41;;;;;;;56.33;26.30;;;3.70;61.50;;;;;;5023671;28;20311;-75
2024/01/21 10:04:12;;;;;;;49.57;25.77;;;3.60;62.60;;;;;;5042790;28;20228;-75
2024/01/21 10:06:41;;;;;;;46.70;24.87;;;3.70;62.30;;;;;;5059159;28;20263;-75
2024/01/21 10:09:16;;;;;;;45.23;24.43;;;3.60;62.40;;;;;;5034999;28;20234;-76
2024/01/21 10:11:49;;;;;;;50.43;24.67;;;3.80;61.70;;;;;;5042501;28;20220;-75
2024/01/21 10:14:17;;;;;;;48.87;25.87;;;3.80;61.50;;;;;;5038606;28;20227;-75
2024/01/21 10:16:47;;;;;;;49.83;25.17;;;3.70;62.10;;;;;;5061767;28;20311;-75
2024/01/21 10:19:16;;;;;;;47.07;25.23;;;3.70;63.10;;;;;;5061847;28;20219;-75
2024/01/21 10:21:45;;;;;;;50.07;25.53;;;3.70;62.60;;;;;;5049901;28;20736;-75
2024/01/21 10:24:15;;;;;;;48.67;26.40;;;3.80;62.40;;;;;;5055926;28;20243;-75
2024/01/21 10:26:44;;;;;;;52.03;27.30;;;3.80;62.10;;;;;;5013785;28;20228;-75
2024/01/21 10:29:13;;;;;;;49.27;26.13;;;3.90;62.70;;;;;;5033763;28;20304;-75
2024/01/21 10:31:41;;;;;;;50.63;27.87;;;4.00;61.90;;;;;;5026652;28;20228;-75
2024/01/21 10:34:10;;;;;;;48.27;26.73;;;3.90;62.60;;;;;;5031331;28;20251;-74
2024/01/21 10:36:44;;;;;;;52.27;27.17;;;3.80;62.90;;;;;;5059355;28;20238;-74
2024/01/21 10:39:20;;;;;;;50.83;27.77;;;3.90;62.50;;;;;;5046443;28;20265;-74
2024/01/21 10:41:49;;;;;;;48.23;26.43;;;3.90;62.50;;;;;;5034383;28;20226;-74
2024/01/21 10:44:19;;;;;;;55.13;27.17;;;3.90;61.90;;;;;;5044944;28;20249;-75
2024/01/21 10:46:49;;;;;;;47.67;26.97;;;3.80;62.50;;;;;;5057289;28;20247;-75
2024/01/21 10:49:20;;;;;;;47.23;26.57;;;3.70;64.30;;;;;;5034257;28;20715;-75
2024/01/21 10:51:53;;;;;;;54.27;28.23;;;3.70;62.80;;;;;;5043145;28;20699;-74
2024/01/21 10:54:25;;;;;;;49.53;26.97;;;3.70;63.50;;;;;;5038824;28;20354;-74
2024/01/21 10:56:57;;;;;;;53.33;27.73;;;3.70;63.60;;;;;;5068233;28;20326;-74
2024/01/21 10:59:26;;;;;;;51.80;28.80;;;3.70;64.80;;;;;;5056606;28;20228;-74
2024/01/21 11:01:55;;;;;;;55.60;27.97;;;3.60;64.30;;;;;;5048099;28;20255;-74
2024/01/21 11:04:24;;;;;;;55.83;29.60;;;3.70;64.80;;;;;;5040490;28;21007;-75
2024/01/21 11:06:57;;;;;;;57.43;28.00;;;3.80;64.70;;;;;;5027666;28;20247;-75
2024/01/21 11:09:30;;;;;;;53.07;28.57;;;3.80;63.40;;;;;;5057426;28;20224;-75
2024/01/21 11:11:59;;;;;;;49.63;27.00;;;3.80;63.90;;;;;;5058891;28;21033;-76
2024/01/21 11:14:32;;;;;;;55.93;27.87;;;3.90;63.70;;;;;;5043555;28;20224;-75
2024/01/21 11:17:02;;;;;;;54.30;28.00;;;3.90;64.60;;;;;;5043834;28;20234;-75
2024/01/21 11:19:39;;;;;;;54.10;29.00;;;3.90;63.50;;;;;;5039751;28;20932;-75
2024/01/21 11:22:11;;;;;;;51.43;28.80;;;3.80;64.10;;;;;;5043439;28;20730;-75
2024/01/21 11:24:46;;;;;;;54.63;30.57;;;3.80;64.40;;;;;;5043547;28;20228;-75
2024/01/21 11:27:18;;;;;;;62.17;30.37;;;3.70;65.60;;;;;;5037121;28;20244;-75
2024/01/21 11:29:49;;;;;;;58.97;30.40;;;3.80;64.70;;;;;;5056294;28;20392;-75
2024/01/21 11:32:24;;;;;;;53.07;29.03;;;3.80;65.00;;;;;;5054882;28;20235;-75
2024/01/21 11:34:53;;;;;;;60.63;29.57;;;3.80;64.60;;;;;;5045373;28;20228;-76
2024/01/21 11:37:23;;;;;;;60.57;29.30;;;3.80;64.30;;;;;;5072889;28;20223;-75
2024/01/21 11:39:53;;;;;;;55.13;29.07;;;3.90;64.50;;;;;;5039509;28;20224;-75
2024/01/21 11:42:23;;;;;;;57.93;29.37;;;3.80;64.50;;;;;;5041325;28;20672;-75
2024/01/21 11:44:51;;;;;;;54.20;30.33;;;3.80;64.20;;;;;;5051580;28;20233;-75
2024/01/21 11:47:20;;;;;;;55.23;28.80;;;3.90;64.10;;;;;;5044469;28;20753;-75
2024/01/21 11:49:49;;;;;;;54.13;29.13;;;4.00;64.40;;;;;;5037134;28;20295;-75
2024/01/21 11:52:20;;;;;;;55.17;30.07;;;3.90;63.70;;;;;;5047996;28;20507;-75
2024/01/21 11:54:49;;;;;;;53.63;30.03;;;3.90;64.20;;;;;;5034379;28;20235;-73
2024/01/21 11:57:20;;;;;;;55.03;29.63;;;4.00;64.00;;;;;;5037990;28;20217;-73
2024/01/21 12:00:00;;;;;;;54.73;31.93;;;4.00;64.60;;;;;;5189430;22;20298;-81
2024/01/21 12:02:29;;;;;;;53.60;30.17;;;4.00;64.90;;;;;;5024796;28;20241;-80
2024/01/21 12:05:00;;;;;;;59.80;31.10;;;3.90;64.50;;;;;;5034231;28;20328;-80
2024/01/21 12:07:30;;;;;;;57.10;31.70;;;3.90;64.50;;;;;;5002227;28;20248;-80
2024/01/21 12:10:01;;;;;;;57.00;31.37;;;4.10;65.40;;;;;;5016074;28;20228;-80
2024/01/21 12:12:32;;;;;;;55.80;31.23;;;4.10;64.60;;;;;;4995630;28;20319;-79
2024/01/21 12:15:02;;;;;;;62.70;31.67;;;4.20;65.00;;;;;;5015948;28;20227;-80
2024/01/21 12:17:33;;;;;;;64.10;32.00;;;4.20;64.30;;;;;;5018166;28;20221;-79
2024/01/21 12:20:04;;;;;;;55.20;30.60;;;4.10;63.80;;;;;;5033670;28;20723;-79
2024/01/21 12:22:39;;;;;;;58.83;31.00;;;4.20;63.70;;;;;;5006058;28;20227;-79
2024/01/21 12:25:09;;;;;;;50.57;28.53;;;4.20;63.80;;;;;;5002708;28;20312;-80
2024/01/21 12:27:46;;;;;;;60.37;29.60;;;4.10;64.10;;;;;;5000185;28;20232;-79
2024/01/21 12:30:15;;;;;;;60.40;31.27;;;4.10;64.50;;;;;;5022760;28;20228;-81
2024/01/21 12:32:45;;;;;;;58.83;30.77;;;4.10;64.50;;;;;;5004319;28;20224;-81
2024/01/21 12:35:25;;;;;;;55.10;30.17;;;4.10;64.00;;;;;;5018585;28;20351;-80
2024/01/21 12:37:56;;;;;;;55.97;30.73;;;3.90;65.10;;;;;;5020647;28;20227;-79
2024/01/21 12:40:26;;;;;;;61.53;31.67;;;3.90;65.70;;;;;;5018306;28;20699;-78
2024/01/21 12:42:58;;;;;;;54.33;29.53;;;3.90;65.40;;;;;;5038347;28;20220;-80
2024/01/21 12:45:27;;;;;;;55.33;29.93;;;4.00;65.30;;;;;;5025227;28;20837;-79
2024/01/21 12:47:56;;;;;;;52.30;29.13;;;4.10;64.90;;;;;;5010686;28;20251;-79
2024/01/21 12:50:29;;;;;;;45.83;27.57;;;3.90;66.00;;;;;;5021142;28;20351;-79
2024/01/21 12:52:59;;;;;;;61.07;29.20;;;3.90;65.10;;;;;;5022740;28;21069;-79
2024/01/21 12:55:28;;;;;;;51.47;27.60;;;4.00;65.60;;;;;;4999439;28;20236;-77
2024/01/21 12:57:59;;;;;;;50.70;27.27;;;4.10;65.20;;;;;;5018294;28;20223;-79